sensor_id;sensor_type;location;lat;lon;timestamp;temperature;humidity
42019;DHT22;27703;51.980;5.848;2022-07-17T00:00:39;17.80;73.60
42019;DHT22;27703;51.980;5.848;2022-07-17T00:03:17;17.80;73.70
42019;DHT22;27703;51.980;5.848;2022-07-17T00:05:43;17.80;73.70
42019;DHT22;27703;51.980;5.848;2022-07-17T00:08:10;17.80;73.70
42019;DHT22;27703;51.980;5.848;2022-07-17T00:10:37;17.80;73.90
42019;DHT22;27703;51.980;5.848;2022-07-17T00:13:03;17.70;74.00
42019;DHT22;27703;51.980;5.848;2022-07-17T00:15:29;17.70;74.00
42019;DHT22;27703;51.980;5.848;2022-07-17T00:17:55;17.70;74.20
42019;DHT22;27703;51.980;5.848;2022-07-17T00:20:21;17.70;74.20
42019;DHT22;27703;51.980;5.848;2022-07-17T00:22:46;17.60;74.30
42019;DHT22;27703;51.980;5.848;2022-07-17T00:25:13;17.60;74.40
42019;DHT22;27703;51.980;5.848;2022-07-17T00:27:39;17.60;74.50
42019;DHT22;27703;51.980;5.848;2022-07-17T00:30:05;17.60;74.60
42019;DHT22;27703;51.980;5.848;2022-07-17T00:32:31;17.50;74.70
42019;DHT22;27703;51.980;5.848;2022-07-17T00:34:57;17.50;74.80
42019;DHT22;27703;51.980;5.848;2022-07-17T00:37:23;17.40;74.90
42019;DHT22;27703;51.980;5.848;2022-07-17T00:39:48;17.40;75.00
42019;DHT22;27703;51.980;5.848;2022-07-17T00:42:15;17.30;75.10
42019;DHT22;27703;51.980;5.848;2022-07-17T00:44:42;17.30;75.20
42019;DHT22;27703;51.980;5.848;2022-07-17T00:49:38;17.30;75.10
42019;DHT22;27703;51.980;5.848;2022-07-17T00:52:03;17.30;75.10
42019;DHT22;27703;51.980;5.848;2022-07-17T00:54:29;17.40;75.20
42019;DHT22;27703;51.980;5.848;2022-07-17T00:56:56;17.40;75.10
42019;DHT22;27703;51.980;5.848;2022-07-17T00:59:24;17.40;75.10
42019;DHT22;27703;51.980;5.848;2022-07-17T01:01:50;17.40;75.10
42019;DHT22;27703;51.980;5.848;2022-07-17T01:04:16;17.30;75.10
42019;DHT22;27703;51.980;5.848;2022-07-17T01:06:41;17.30;75.20
42019;DHT22;27703;51.980;5.848;2022-07-17T01:09:10;17.30;75.30
42019;DHT22;27703;51.980;5.848;2022-07-17T01:11:36;17.30;75.40
42019;DHT22;27703;51.980;5.848;2022-07-17T01:14:02;17.30;75.40
42019;DHT22;27703;51.980;5.848;2022-07-17T01:16:28;17.30;75.50
42019;DHT22;27703;51.980;5.848;2022-07-17T01:18:54;17.30;75.50
42019;DHT22;27703;51.980;5.848;2022-07-17T01:21:20;17.30;75.50
42019;DHT22;27703;51.980;5.848;2022-07-17T01:23:45;17.30;75.50
42019;DHT22;27703;51.980;5.848;2022-07-17T01:26:11;17.30;75.60
42019;DHT22;27703;51.980;5.848;2022-07-17T01:28:36;17.20;75.70
42019;DHT22;27703;51.980;5.848;2022-07-17T01:31:02;17.20;75.80
42019;DHT22;27703;51.980;5.848;2022-07-17T01:33:29;17.20;75.80
42019;DHT22;27703;51.980;5.848;2022-07-17T01:35:54;17.20;75.80
42019;DHT22;27703;51.980;5.848;2022-07-17T01:38:20;17.20;75.90
42019;DHT22;27703;51.980;5.848;2022-07-17T01:40:45;17.10;75.90
42019;DHT22;27703;51.980;5.848;2022-07-17T01:43:11;17.10;75.90
42019;DHT22;27703;51.980;5.848;2022-07-17T01:45:36;17.10;76.00
42019;DHT22;27703;51.980;5.848;2022-07-17T01:48:02;17.10;76.10
42019;DHT22;27703;51.980;5.848;2022-07-17T01:50:28;17.00;76.10
42019;DHT22;27703;51.980;5.848;2022-07-17T01:52:53;17.00;76.20
42019;DHT22;27703;51.980;5.848;2022-07-17T01:55:19;17.00;76.20
42019;DHT22;27703;51.980;5.848;2022-07-17T01:57:44;17.00;76.40
42019;DHT22;27703;51.980;5.848;2022-07-17T02:00:13;16.90;76.40
42019;DHT22;27703;51.980;5.848;2022-07-17T02:02:40;17.00;76.40
42019;DHT22;27703;51.980;5.848;2022-07-17T02:05:06;16.90;76.40
42019;DHT22;27703;51.980;5.848;2022-07-17T02:07:33;16.90;76.40
42019;DHT22;27703;51.980;5.848;2022-07-17T02:10:00;16.90;76.40
42019;DHT22;27703;51.980;5.848;2022-07-17T02:12:25;16.90;76.30
42019;DHT22;27703;51.980;5.848;2022-07-17T02:14:51;16.90;76.40
42019;DHT22;27703;51.980;5.848;2022-07-17T02:17:16;16.90;76.40
42019;DHT22;27703;51.980;5.848;2022-07-17T02:19:42;16.90;76.50
42019;DHT22;27703;51.980;5.848;2022-07-17T02:22:07;16.90;76.50
42019;DHT22;27703;51.980;5.848;2022-07-17T02:24:33;16.80;76.60
42019;DHT22;27703;51.980;5.848;2022-07-17T02:26:59;16.80;76.80
42019;DHT22;27703;51.980;5.848;2022-07-17T02:29:24;16.70;76.80
42019;DHT22;27703;51.980;5.848;2022-07-17T02:31:50;16.70;77.00
42019;DHT22;27703;51.980;5.848;2022-07-17T02:34:15;16.70;77.00
42019;DHT22;27703;51.980;5.848;2022-07-17T02:36:41;16.70;77.00
42019;DHT22;27703;51.980;5.848;2022-07-17T02:39:06;16.60;77.00
42019;DHT22;27703;51.980;5.848;2022-07-17T02:41:32;16.60;77.20
42019;DHT22;27703;51.980;5.848;2022-07-17T02:43:58;16.60;77.20
42019;DHT22;27703;51.980;5.848;2022-07-17T02:46:24;16.60;77.20
42019;DHT22;27703;51.980;5.848;2022-07-17T02:48:49;16.60;77.30
42019;DHT22;27703;51.980;5.848;2022-07-17T02:51:15;16.60;77.40
42019;DHT22;27703;51.980;5.848;2022-07-17T02:53:40;16.50;77.40
42019;DHT22;27703;51.980;5.848;2022-07-17T02:56:06;16.50;77.50
42019;DHT22;27703;51.980;5.848;2022-07-17T02:58:31;16.50;77.50
42019;DHT22;27703;51.980;5.848;2022-07-17T03:00:57;16.50;77.70
42019;DHT22;27703;51.980;5.848;2022-07-17T03:03:22;16.40;77.70
42019;DHT22;27703;51.980;5.848;2022-07-17T03:05:48;16.40;77.80
42019;DHT22;27703;51.980;5.848;2022-07-17T03:08:14;16.40;77.80
42019;DHT22;27703;51.980;5.848;2022-07-17T03:10:40;16.40;77.90
42019;DHT22;27703;51.980;5.848;2022-07-17T03:13:06;16.40;77.90
42019;DHT22;27703;51.980;5.848;2022-07-17T03:15:31;16.40;77.90
42019;DHT22;27703;51.980;5.848;2022-07-17T03:17:57;16.30;77.90
42019;DHT22;27703;51.980;5.848;2022-07-17T03:20:23;16.30;78.00
42019;DHT22;27703;51.980;5.848;2022-07-17T03:22:48;16.30;78.10
42019;DHT22;27703;51.980;5.848;2022-07-17T03:25:14;16.30;78.20
42019;DHT22;27703;51.980;5.848;2022-07-17T03:27:39;16.20;78.20
42019;DHT22;27703;51.980;5.848;2022-07-17T03:30:06;16.20;78.20
42019;DHT22;27703;51.980;5.848;2022-07-17T03:32:31;16.20;78.30
42019;DHT22;27703;51.980;5.848;2022-07-17T03:34:57;16.20;78.30
42019;DHT22;27703;51.980;5.848;2022-07-17T03:37:23;16.20;78.40
42019;DHT22;27703;51.980;5.848;2022-07-17T03:39:48;16.10;78.40
42019;DHT22;27703;51.980;5.848;2022-07-17T03:42:14;16.10;78.40
42019;DHT22;27703;51.980;5.848;2022-07-17T03:44:39;16.10;78.50
42019;DHT22;27703;51.980;5.848;2022-07-17T03:47:05;16.10;78.50
42019;DHT22;27703;51.980;5.848;2022-07-17T03:49:30;16.10;78.70
42019;DHT22;27703;51.980;5.848;2022-07-17T03:51:56;16.10;78.70
42019;DHT22;27703;51.980;5.848;2022-07-17T03:54:21;16.00;78.80
42019;DHT22;27703;51.980;5.848;2022-07-17T03:56:47;16.00;78.80
42019;DHT22;27703;51.980;5.848;2022-07-17T03:59:12;16.00;78.80
42019;DHT22;27703;51.980;5.848;2022-07-17T04:01:38;16.10;78.80
42019;DHT22;27703;51.980;5.848;2022-07-17T04:04:04;16.00;78.80
42019;DHT22;27703;51.980;5.848;2022-07-17T04:06:29;16.00;78.70
42019;DHT22;27703;51.980;5.848;2022-07-17T04:08:55;16.00;78.80
42019;DHT22;27703;51.980;5.848;2022-07-17T04:11:20;16.00;79.00
42019;DHT22;27703;51.980;5.848;2022-07-17T04:13:46;15.90;79.20
42019;DHT22;27703;51.980;5.848;2022-07-17T04:16:12;15.90;79.40
42019;DHT22;27703;51.980;5.848;2022-07-17T04:18:38;15.90;80.00
42019;DHT22;27703;51.980;5.848;2022-07-17T04:21:06;15.90;79.20
42019;DHT22;27703;51.980;5.848;2022-07-17T04:23:32;15.90;79.30
42019;DHT22;27703;51.980;5.848;2022-07-17T04:25:58;15.90;79.20
42019;DHT22;27703;51.980;5.848;2022-07-17T04:28:24;15.90;79.40
42019;DHT22;27703;51.980;5.848;2022-07-17T04:30:50;15.90;79.40
42019;DHT22;27703;51.980;5.848;2022-07-17T04:33:16;15.90;79.40
42019;DHT22;27703;51.980;5.848;2022-07-17T04:35:41;16.00;79.40
42019;DHT22;27703;51.980;5.848;2022-07-17T04:38:07;15.90;79.40
42019;DHT22;27703;51.980;5.848;2022-07-17T04:40:34;16.00;79.50
42019;DHT22;27703;51.980;5.848;2022-07-17T04:43:00;16.00;79.50
42019;DHT22;27703;51.980;5.848;2022-07-17T04:45:25;16.00;79.40
42019;DHT22;27703;51.980;5.848;2022-07-17T04:47:51;16.00;79.40
42019;DHT22;27703;51.980;5.848;2022-07-17T04:50:17;16.10;79.40
42019;DHT22;27703;51.980;5.848;2022-07-17T04:52:42;16.10;79.40
42019;DHT22;27703;51.980;5.848;2022-07-17T04:55:08;16.10;79.50
42019;DHT22;27703;51.980;5.848;2022-07-17T04:57:34;16.10;79.70
42019;DHT22;27703;51.980;5.848;2022-07-17T05:00:00;16.00;79.70
42019;DHT22;27703;51.980;5.848;2022-07-17T05:02:25;16.10;79.70
42019;DHT22;27703;51.980;5.848;2022-07-17T05:04:51;16.10;79.70
42019;DHT22;27703;51.980;5.848;2022-07-17T05:07:17;16.10;79.90
42019;DHT22;27703;51.980;5.848;2022-07-17T05:09:42;16.10;79.90
42019;DHT22;27703;51.980;5.848;2022-07-17T05:12:08;16.10;79.90
42019;DHT22;27703;51.980;5.848;2022-07-17T05:14:34;16.10;79.90
42019;DHT22;27703;51.980;5.848;2022-07-17T05:16:59;16.20;79.90
42019;DHT22;27703;51.980;5.848;2022-07-17T05:19:25;16.20;79.90
42019;DHT22;27703;51.980;5.848;2022-07-17T05:21:51;16.20;79.90
42019;DHT22;27703;51.980;5.848;2022-07-17T05:24:17;16.30;79.90
42019;DHT22;27703;51.980;5.848;2022-07-17T05:26:42;16.30;79.90
42019;DHT22;27703;51.980;5.848;2022-07-17T05:29:08;16.20;79.90
42019;DHT22;27703;51.980;5.848;2022-07-17T05:31:33;16.30;80.00
42019;DHT22;27703;51.980;5.848;2022-07-17T05:33:59;16.30;80.00
42019;DHT22;27703;51.980;5.848;2022-07-17T05:36:25;16.40;79.90
42019;DHT22;27703;51.980;5.848;2022-07-17T05:38:50;16.40;79.90
42019;DHT22;27703;51.980;5.848;2022-07-17T05:41:16;16.50;79.90
42019;DHT22;27703;51.980;5.848;2022-07-17T05:43:41;16.50;79.80
42019;DHT22;27703;51.980;5.848;2022-07-17T05:46:07;16.50;79.80
42019;DHT22;27703;51.980;5.848;2022-07-17T05:48:32;16.50;79.80
42019;DHT22;27703;51.980;5.848;2022-07-17T05:50:58;16.50;79.80
42019;DHT22;27703;51.980;5.848;2022-07-17T05:53:24;16.60;79.80
42019;DHT22;27703;51.980;5.848;2022-07-17T05:55:50;16.60;79.70
42019;DHT22;27703;51.980;5.848;2022-07-17T05:58:16;16.70;79.70
42019;DHT22;27703;51.980;5.848;2022-07-17T06:00:42;16.70;79.50
42019;DHT22;27703;51.980;5.848;2022-07-17T06:03:07;16.70;79.40
42019;DHT22;27703;51.980;5.848;2022-07-17T06:05:33;16.80;79.30
42019;DHT22;27703;51.980;5.848;2022-07-17T06:07:59;16.90;79.20
42019;DHT22;27703;51.980;5.848;2022-07-17T06:10:25;16.90;79.10
42019;DHT22;27703;51.980;5.848;2022-07-17T06:12:52;17.00;79.10
42019;DHT22;27703;51.980;5.848;2022-07-17T06:15:22;17.00;79.10
42019;DHT22;27703;51.980;5.848;2022-07-17T06:17:48;17.10;79.10
42019;DHT22;27703;51.980;5.848;2022-07-17T06:20:15;17.10;79.00
42019;DHT22;27703;51.980;5.848;2022-07-17T06:22:41;17.20;78.90
42019;DHT22;27703;51.980;5.848;2022-07-17T06:25:08;17.30;78.90
42019;DHT22;27703;51.980;5.848;2022-07-17T06:27:34;17.30;78.70
42019;DHT22;27703;51.980;5.848;2022-07-17T06:29:59;17.30;78.60
42019;DHT22;27703;51.980;5.848;2022-07-17T06:32:25;17.40;78.40
42019;DHT22;27703;51.980;5.848;2022-07-17T06:34:51;17.40;78.30
42019;DHT22;27703;51.980;5.848;2022-07-17T06:37:17;17.50;78.10
42019;DHT22;27703;51.980;5.848;2022-07-17T06:39:42;17.50;78.00
42019;DHT22;27703;51.980;5.848;2022-07-17T06:42:08;17.60;77.90
42019;DHT22;27703;51.980;5.848;2022-07-17T06:44:35;17.60;77.70
42019;DHT22;27703;51.980;5.848;2022-07-17T06:47:01;17.70;77.70
42019;DHT22;27703;51.980;5.848;2022-07-17T06:49:27;17.70;77.60
42019;DHT22;27703;51.980;5.848;2022-07-17T06:51:52;17.80;77.60
42019;DHT22;27703;51.980;5.848;2022-07-17T06:54:18;17.90;77.50
42019;DHT22;27703;51.980;5.848;2022-07-17T06:56:43;18.00;77.30
42019;DHT22;27703;51.980;5.848;2022-07-17T06:59:09;18.10;77.00
42019;DHT22;27703;51.980;5.848;2022-07-17T07:01:36;18.10;76.70
42019;DHT22;27703;51.980;5.848;2022-07-17T07:04:02;18.30;76.80
42019;DHT22;27703;51.980;5.848;2022-07-17T07:06:29;18.30;76.60
42019;DHT22;27703;51.980;5.848;2022-07-17T07:08:55;18.30;76.40
42019;DHT22;27703;51.980;5.848;2022-07-17T07:11:21;18.40;76.20
42019;DHT22;27703;51.980;5.848;2022-07-17T07:13:47;18.50;76.00
42019;DHT22;27703;51.980;5.848;2022-07-17T07:16:12;18.50;76.00
42019;DHT22;27703;51.980;5.848;2022-07-17T07:18:38;18.50;76.00
42019;DHT22;27703;51.980;5.848;2022-07-17T07:21:04;18.60;75.80
42019;DHT22;27703;51.980;5.848;2022-07-17T07:23:29;18.60;75.60
42019;DHT22;27703;51.980;5.848;2022-07-17T07:25:55;18.70;75.40
42019;DHT22;27703;51.980;5.848;2022-07-17T07:28:20;18.80;75.30
42019;DHT22;27703;51.980;5.848;2022-07-17T07:30:46;18.90;75.30
42019;DHT22;27703;51.980;5.848;2022-07-17T07:33:12;18.90;75.20
42019;DHT22;27703;51.980;5.848;2022-07-17T07:35:37;19.00;75.10
42019;DHT22;27703;51.980;5.848;2022-07-17T07:38:03;19.10;75.00
42019;DHT22;27703;51.980;5.848;2022-07-17T07:40:29;19.10;75.00
42019;DHT22;27703;51.980;5.848;2022-07-17T07:42:56;19.20;74.90
42019;DHT22;27703;51.980;5.848;2022-07-17T07:45:21;19.20;74.70
42019;DHT22;27703;51.980;5.848;2022-07-17T07:47:48;19.30;74.60
42019;DHT22;27703;51.980;5.848;2022-07-17T07:50:15;19.40;74.50
42019;DHT22;27703;51.980;5.848;2022-07-17T07:52:41;19.40;74.30
42019;DHT22;27703;51.980;5.848;2022-07-17T07:55:08;19.50;74.20
42019;DHT22;27703;51.980;5.848;2022-07-17T07:57:34;19.50;74.20
42019;DHT22;27703;51.980;5.848;2022-07-17T07:59:59;19.60;73.90
42019;DHT22;27703;51.980;5.848;2022-07-17T08:02:25;19.70;73.90
42019;DHT22;27703;51.980;5.848;2022-07-17T08:04:51;19.80;73.80
42019;DHT22;27703;51.980;5.848;2022-07-17T08:07:16;19.80;73.60
42019;DHT22;27703;51.980;5.848;2022-07-17T08:09:42;19.90;73.50
42019;DHT22;27703;51.980;5.848;2022-07-17T08:12:07;19.90;73.40
42019;DHT22;27703;51.980;5.848;2022-07-17T08:14:33;19.90;73.30
42019;DHT22;27703;51.980;5.848;2022-07-17T08:16:58;19.90;73.00
42019;DHT22;27703;51.980;5.848;2022-07-17T08:19:24;19.90;73.00
42019;DHT22;27703;51.980;5.848;2022-07-17T08:21:49;20.00;73.00
42019;DHT22;27703;51.980;5.848;2022-07-17T08:24:15;19.90;72.80
42019;DHT22;27703;51.980;5.848;2022-07-17T08:26:41;19.90;72.80
42019;DHT22;27703;51.980;5.848;2022-07-17T08:29:07;20.10;72.70
42019;DHT22;27703;51.980;5.848;2022-07-17T08:31:33;20.20;72.40
42019;DHT22;27703;51.980;5.848;2022-07-17T08:33:58;20.20;72.40
42019;DHT22;27703;51.980;5.848;2022-07-17T08:36:24;20.30;72.20
42019;DHT22;27703;51.980;5.848;2022-07-17T08:38:49;20.40;71.90
42019;DHT22;27703;51.980;5.848;2022-07-17T08:41:16;20.50;71.80
42019;DHT22;27703;51.980;5.848;2022-07-17T08:43:42;20.60;71.60
42019;DHT22;27703;51.980;5.848;2022-07-17T08:46:11;20.60;71.60
42019;DHT22;27703;51.980;5.848;2022-07-17T08:48:40;20.70;71.50
42019;DHT22;27703;51.980;5.848;2022-07-17T08:51:07;20.70;71.10
42019;DHT22;27703;51.980;5.848;2022-07-17T08:53:33;20.70;71.20
42019;DHT22;27703;51.980;5.848;2022-07-17T08:55:59;20.80;71.00
42019;DHT22;27703;51.980;5.848;2022-07-17T08:58:24;20.90;71.00
42019;DHT22;27703;51.980;5.848;2022-07-17T09:00:50;21.10;70.80
42019;DHT22;27703;51.980;5.848;2022-07-17T09:03:16;21.10;70.80
42019;DHT22;27703;51.980;5.848;2022-07-17T09:05:43;21.30;70.50
42019;DHT22;27703;51.980;5.848;2022-07-17T09:08:16;21.30;70.40
42019;DHT22;27703;51.980;5.848;2022-07-17T09:10:44;21.50;70.20
42019;DHT22;27703;51.980;5.848;2022-07-17T09:13:24;21.50;69.90
42019;DHT22;27703;51.980;5.848;2022-07-17T09:16:13;21.60;69.90
42019;DHT22;27703;51.980;5.848;2022-07-17T09:18:57;21.60;70.00
42019;DHT22;27703;51.980;5.848;2022-07-17T09:21:26;21.60;69.40
42019;DHT22;27703;51.980;5.848;2022-07-17T09:24:03;21.70;69.60
42019;DHT22;27703;51.980;5.848;2022-07-17T09:26:29;21.80;69.50
42019;DHT22;27703;51.980;5.848;2022-07-17T09:28:56;21.80;69.80
42019;DHT22;27703;51.980;5.848;2022-07-17T09:31:29;21.80;70.10
42019;DHT22;27703;51.980;5.848;2022-07-17T09:33:56;21.80;70.50
42019;DHT22;27703;51.980;5.848;2022-07-17T09:36:22;21.80;71.20
42019;DHT22;27703;51.980;5.848;2022-07-17T09:38:52;21.90;70.90
42019;DHT22;27703;51.980;5.848;2022-07-17T09:41:19;22.00;70.80
42019;DHT22;27703;51.980;5.848;2022-07-17T09:43:54;22.10;70.50
42019;DHT22;27703;51.980;5.848;2022-07-17T09:46:25;22.10;71.00
42019;DHT22;27703;51.980;5.848;2022-07-17T09:48:56;22.20;70.10
42019;DHT22;27703;51.980;5.848;2022-07-17T09:51:29;22.20;70.10
42019;DHT22;27703;51.980;5.848;2022-07-17T09:53:58;22.30;70.40
42019;DHT22;27703;51.980;5.848;2022-07-17T09:56:25;22.50;70.20
42019;DHT22;27703;51.980;5.848;2022-07-17T09:58:54;22.60;69.30
42019;DHT22;27703;51.980;5.848;2022-07-17T10:01:22;22.70;69.10
42019;DHT22;27703;51.980;5.848;2022-07-17T10:03:48;22.70;68.80
42019;DHT22;27703;51.980;5.848;2022-07-17T10:06:15;22.60;68.90
42019;DHT22;27703;51.980;5.848;2022-07-17T10:08:41;22.70;68.80
42019;DHT22;27703;51.980;5.848;2022-07-17T10:11:08;22.80;68.50
42019;DHT22;27703;51.980;5.848;2022-07-17T10:13:40;22.90;68.50
42019;DHT22;27703;51.980;5.848;2022-07-17T10:16:09;22.90;68.00
42019;DHT22;27703;51.980;5.848;2022-07-17T10:18:42;22.90;67.20
42019;DHT22;27703;51.980;5.848;2022-07-17T10:23:34;22.90;67.30
42019;DHT22;27703;51.980;5.848;2022-07-17T10:26:00;23.00;67.10
42019;DHT22;27703;51.980;5.848;2022-07-17T10:28:41;23.00;67.00
42019;DHT22;27703;51.980;5.848;2022-07-17T10:31:07;23.20;66.90
42019;DHT22;27703;51.980;5.848;2022-07-17T10:33:34;23.20;66.80
42019;DHT22;27703;51.980;5.848;2022-07-17T10:35:59;23.40;66.70
42019;DHT22;27703;51.980;5.848;2022-07-17T10:38:26;23.50;66.70
42019;DHT22;27703;51.980;5.848;2022-07-17T10:41:02;23.70;66.70
42019;DHT22;27703;51.980;5.848;2022-07-17T10:43:43;23.80;66.60
42019;DHT22;27703;51.980;5.848;2022-07-17T10:46:09;23.90;66.20
42019;DHT22;27703;51.980;5.848;2022-07-17T10:48:35;23.90;66.10
42019;DHT22;27703;51.980;5.848;2022-07-17T10:51:01;23.90;66.00
42019;DHT22;27703;51.980;5.848;2022-07-17T10:53:31;24.00;65.80
42019;DHT22;27703;51.980;5.848;2022-07-17T11:03:41;24.20;65.10
42019;DHT22;27703;51.980;5.848;2022-07-17T11:06:21;24.20;65.10
42019;DHT22;27703;51.980;5.848;2022-07-17T11:08:51;24.30;64.80
42019;DHT22;27703;51.980;5.848;2022-07-17T11:11:19;24.40;64.10
42019;DHT22;27703;51.980;5.848;2022-07-17T11:13:45;24.40;64.10
42019;DHT22;27703;51.980;5.848;2022-07-17T11:16:11;24.50;64.00
42019;DHT22;27703;51.980;5.848;2022-07-17T11:18:46;24.50;63.80
42019;DHT22;27703;51.980;5.848;2022-07-17T11:21:13;24.60;63.70
42019;DHT22;27703;51.980;5.848;2022-07-17T11:23:53;24.70;63.70
42019;DHT22;27703;51.980;5.848;2022-07-17T11:26:20;24.80;63.20
42019;DHT22;27703;51.980;5.848;2022-07-17T11:28:46;25.00;63.10
42019;DHT22;27703;51.980;5.848;2022-07-17T11:31:18;25.00;63.10
42019;DHT22;27703;51.980;5.848;2022-07-17T11:33:49;25.20;62.90
42019;DHT22;27703;51.980;5.848;2022-07-17T11:38:52;25.30;62.50
42019;DHT22;27703;51.980;5.848;2022-07-17T11:41:18;25.30;61.90
42019;DHT22;27703;51.980;5.848;2022-07-17T11:43:45;25.30;61.60
42019;DHT22;27703;51.980;5.848;2022-07-17T11:46:10;25.30;61.60
42019;DHT22;27703;51.980;5.848;2022-07-17T11:48:36;25.20;61.80
42019;DHT22;27703;51.980;5.848;2022-07-17T11:51:01;25.50;62.00
42019;DHT22;27703;51.980;5.848;2022-07-17T11:53:34;25.70;61.80
42019;DHT22;27703;51.980;5.848;2022-07-17T11:56:01;25.80;61.40
42019;DHT22;27703;51.980;5.848;2022-07-17T11:58:27;25.80;60.80
42019;DHT22;27703;51.980;5.848;2022-07-17T12:01:03;25.80;61.10
42019;DHT22;27703;51.980;5.848;2022-07-17T12:03:29;25.90;61.10
42019;DHT22;27703;51.980;5.848;2022-07-17T12:05:54;25.90;60.70
42019;DHT22;27703;51.980;5.848;2022-07-17T12:08:20;25.90;60.60
42019;DHT22;27703;51.980;5.848;2022-07-17T12:10:46;25.90;60.60
42019;DHT22;27703;51.980;5.848;2022-07-17T12:13:15;25.90;60.00
42019;DHT22;27703;51.980;5.848;2022-07-17T12:15:48;26.00;60.20
42019;DHT22;27703;51.980;5.848;2022-07-17T12:18:26;26.00;59.40
42019;DHT22;27703;51.980;5.848;2022-07-17T12:20:55;26.00;59.50
42019;DHT22;27703;51.980;5.848;2022-07-17T12:23:38;26.00;59.70
42019;DHT22;27703;51.980;5.848;2022-07-17T12:26:10;26.20;59.80
42019;DHT22;27703;51.980;5.848;2022-07-17T12:28:38;26.40;59.60
42019;DHT22;27703;51.980;5.848;2022-07-17T12:31:04;26.50;59.60
42019;DHT22;27703;51.980;5.848;2022-07-17T12:33:30;26.70;59.40
42019;DHT22;27703;51.980;5.848;2022-07-17T12:35:55;26.60;59.00
42019;DHT22;27703;51.980;5.848;2022-07-17T12:38:21;26.60;59.80
42019;DHT22;27703;51.980;5.848;2022-07-17T12:40:47;26.70;58.80
42019;DHT22;27703;51.980;5.848;2022-07-17T12:43:12;26.70;59.20
42019;DHT22;27703;51.980;5.848;2022-07-17T12:45:38;26.70;59.30
42019;DHT22;27703;51.980;5.848;2022-07-17T12:48:04;26.70;59.30
42019;DHT22;27703;51.980;5.848;2022-07-17T12:50:29;26.90;59.40
42019;DHT22;27703;51.980;5.848;2022-07-17T12:52:55;27.00;59.10
42019;DHT22;27703;51.980;5.848;2022-07-17T12:55:20;27.10;59.10
42019;DHT22;27703;51.980;5.848;2022-07-17T12:57:46;27.20;59.00
42019;DHT22;27703;51.980;5.848;2022-07-17T13:00:12;27.30;58.70
42019;DHT22;27703;51.980;5.848;2022-07-17T13:02:38;27.30;58.30
42019;DHT22;27703;51.980;5.848;2022-07-17T13:05:04;27.30;58.10
42019;DHT22;27703;51.980;5.848;2022-07-17T13:07:29;27.30;58.50
42019;DHT22;27703;51.980;5.848;2022-07-17T13:09:55;27.40;58.70
42019;DHT22;27703;51.980;5.848;2022-07-17T13:12:21;27.60;58.70
42019;DHT22;27703;51.980;5.848;2022-07-17T13:14:46;27.70;58.40
42019;DHT22;27703;51.980;5.848;2022-07-17T13:17:12;27.70;57.90
42019;DHT22;27703;51.980;5.848;2022-07-17T13:19:37;27.70;58.00
42019;DHT22;27703;51.980;5.848;2022-07-17T13:22:03;27.80;57.80
42019;DHT22;27703;51.980;5.848;2022-07-17T13:24:30;27.80;57.50
42019;DHT22;27703;51.980;5.848;2022-07-17T13:26:55;27.90;57.10
42019;DHT22;27703;51.980;5.848;2022-07-17T13:29:21;27.80;57.00
42019;DHT22;27703;51.980;5.848;2022-07-17T13:31:47;27.80;57.30
42019;DHT22;27703;51.980;5.848;2022-07-17T13:34:13;27.80;57.20
42019;DHT22;27703;51.980;5.848;2022-07-17T13:36:38;27.90;57.40
42019;DHT22;27703;51.980;5.848;2022-07-17T13:39:04;28.00;57.50
42019;DHT22;27703;51.980;5.848;2022-07-17T13:41:30;28.10;57.30
42019;DHT22;27703;51.980;5.848;2022-07-17T13:43:56;28.30;56.60
42019;DHT22;27703;51.980;5.848;2022-07-17T13:46:22;28.30;56.20
42019;DHT22;27703;51.980;5.848;2022-07-17T13:48:48;28.30;56.00
42019;DHT22;27703;51.980;5.848;2022-07-17T13:51:13;28.40;55.80
42019;DHT22;27703;51.980;5.848;2022-07-17T13:53:39;28.40;55.50
42019;DHT22;27703;51.980;5.848;2022-07-17T13:56:05;28.50;55.10
42019;DHT22;27703;51.980;5.848;2022-07-17T13:58:30;28.50;55.20
42019;DHT22;27703;51.980;5.848;2022-07-17T14:00:58;28.50;55.20
42019;DHT22;27703;51.980;5.848;2022-07-17T14:03:23;28.70;55.10
42019;DHT22;27703;51.980;5.848;2022-07-17T14:05:49;28.70;54.70
42019;DHT22;27703;51.980;5.848;2022-07-17T14:08:15;28.70;54.80
42019;DHT22;27703;51.980;5.848;2022-07-17T14:10:41;28.70;54.00
42019;DHT22;27703;51.980;5.848;2022-07-17T14:13:06;28.50;53.80
42019;DHT22;27703;51.980;5.848;2022-07-17T14:15:32;28.50;53.70
42019;DHT22;27703;51.980;5.848;2022-07-17T14:17:57;28.70;53.70
42019;DHT22;27703;51.980;5.848;2022-07-17T14:20:23;28.70;52.70
42019;DHT22;27703;51.980;5.848;2022-07-17T14:22:48;28.70;52.70
42019;DHT22;27703;51.980;5.848;2022-07-17T14:25:14;28.70;52.70
42019;DHT22;27703;51.980;5.848;2022-07-17T14:27:40;28.80;52.80
42019;DHT22;27703;51.980;5.848;2022-07-17T14:30:06;28.90;52.90
42019;DHT22;27703;51.980;5.848;2022-07-17T14:32:31;29.00;53.00
42019;DHT22;27703;51.980;5.848;2022-07-17T14:34:57;29.20;53.00
42019;DHT22;27703;51.980;5.848;2022-07-17T14:37:23;29.30;52.60
42019;DHT22;27703;51.980;5.848;2022-07-17T14:39:48;29.30;53.10
42019;DHT22;27703;51.980;5.848;2022-07-17T14:42:14;29.40;52.70
42019;DHT22;27703;51.980;5.848;2022-07-17T14:44:39;29.30;52.70
42019;DHT22;27703;51.980;5.848;2022-07-17T14:47:05;29.50;52.60
42019;DHT22;27703;51.980;5.848;2022-07-17T14:49:30;29.50;52.10
42019;DHT22;27703;51.980;5.848;2022-07-17T14:51:56;29.50;52.10
42019;DHT22;27703;51.980;5.848;2022-07-17T14:54:22;29.50;51.80
42019;DHT22;27703;51.980;5.848;2022-07-17T14:56:47;29.40;51.70
42019;DHT22;27703;51.980;5.848;2022-07-17T14:59:13;29.30;50.70
42019;DHT22;27703;51.980;5.848;2022-07-17T15:01:38;29.00;50.50
42019;DHT22;27703;51.980;5.848;2022-07-17T15:04:04;29.00;51.20
42019;DHT22;27703;51.980;5.848;2022-07-17T15:06:30;29.10;51.40
42019;DHT22;27703;51.980;5.848;2022-07-17T15:08:55;29.20;51.50
42019;DHT22;27703;51.980;5.848;2022-07-17T15:11:21;29.30;51.30
42019;DHT22;27703;51.980;5.848;2022-07-17T15:13:46;29.20;51.10
42019;DHT22;27703;51.980;5.848;2022-07-17T15:16:12;29.20;51.30
42019;DHT22;27703;51.980;5.848;2022-07-17T15:18:37;29.20;51.80
42019;DHT22;27703;51.980;5.848;2022-07-17T15:21:03;29.30;51.20
42019;DHT22;27703;51.980;5.848;2022-07-17T15:23:29;29.30;51.20
42019;DHT22;27703;51.980;5.848;2022-07-17T15:25:54;29.30;51.40
42019;DHT22;27703;51.980;5.848;2022-07-17T15:28:20;29.40;51.40
42019;DHT22;27703;51.980;5.848;2022-07-17T15:30:45;29.30;51.40
42019;DHT22;27703;51.980;5.848;2022-07-17T15:33:11;29.30;51.50
42019;DHT22;27703;51.980;5.848;2022-07-17T15:35:36;29.30;51.00
42019;DHT22;27703;51.980;5.848;2022-07-17T15:38:02;29.40;50.90
42019;DHT22;27703;51.980;5.848;2022-07-17T15:40:27;29.40;51.40